<?xml version="1.0" encoding="UTF-8" standalone="no" ?>
<gpx xmlns="http://www.topografix.com/GPX/1/1" xmlns:xsi="http://www.w3.org/2001/XMLSchema-instance" xsi:schemaLocation="http://www.topografix.com/GPX/1/1 http://www.topografix.com/GPX/1/1/gpx.xsd" version="1.1" creator="VisuGPX - https://www.visugpx.com">
  <metadata>
    <name>11325233-La Hussiere</name>
  </metadata>
  <trk>
    <name><![CDATA[11325233-La Hussiere]]></name>
    <trkseg>
      <trkpt lat="50.68148" lon="4.49275">
        <ele>113</ele>
        <time>2020-05-21T07:10:58Z</time>
      </trkpt>
      <trkpt lat="50.68205" lon="4.49291">
        <ele>113</ele>
        <time>2020-05-21T07:11:44Z</time>
      </trkpt>
      <trkpt lat="50.6825" lon="4.4929">
        <ele>112</ele>
        <time>2020-05-21T07:12:20Z</time>
      </trkpt>
      <trkpt lat="50.68317" lon="4.49221">
        <ele>109</ele>
        <time>2020-05-21T07:13:24Z</time>
      </trkpt>
      <trkpt lat="50.68344" lon="4.49156">
        <ele>107</ele>
        <time>2020-05-21T07:14:04Z</time>
      </trkpt>
      <trkpt lat="50.68351" lon="4.49073">
        <ele>105</ele>
        <time>2020-05-21T07:14:46Z</time>
      </trkpt>
      <trkpt lat="50.68419" lon="4.4904">
        <ele>95</ele>
        <time>2020-05-21T07:15:43Z</time>
      </trkpt>
      <trkpt lat="50.68511" lon="4.49067">
        <ele>93</ele>
        <time>2020-05-21T07:16:58Z</time>
      </trkpt>
      <trkpt lat="50.68571" lon="4.4904">
        <ele>92</ele>
        <time>2020-05-21T07:17:48Z</time>
      </trkpt>
      <trkpt lat="50.68639" lon="4.49057">
        <ele>91</ele>
        <time>2020-05-21T07:18:43Z</time>
      </trkpt>
      <trkpt lat="50.68687" lon="4.49044">
        <ele>88</ele>
        <time>2020-05-21T07:19:22Z</time>
      </trkpt>
      <trkpt lat="50.68712" lon="4.49051">
        <ele>88</ele>
        <time>2020-05-21T07:19:43Z</time>
      </trkpt>
      <trkpt lat="50.68736" lon="4.49079">
        <ele>87</ele>
        <time>2020-05-21T07:20:07Z</time>
      </trkpt>
      <trkpt lat="50.68801" lon="4.49046">
        <ele>81</ele>
        <time>2020-05-21T07:21:01Z</time>
      </trkpt>
      <trkpt lat="50.68874" lon="4.49069">
        <ele>78</ele>
        <time>2020-05-21T07:22:01Z</time>
      </trkpt>
      <trkpt lat="50.68899" lon="4.49074">
        <ele>77</ele>
        <time>2020-05-21T07:22:21Z</time>
      </trkpt>
      <trkpt lat="50.68961" lon="4.49126">
        <ele>74</ele>
        <time>2020-05-21T07:23:17Z</time>
      </trkpt>
      <trkpt lat="50.68959" lon="4.49283">
        <ele>72</ele>
        <time>2020-05-21T07:24:37Z</time>
      </trkpt>
      <trkpt lat="50.68927" lon="4.49319">
        <ele>73</ele>
        <time>2020-05-21T07:25:08Z</time>
      </trkpt>
      <trkpt lat="50.68956" lon="4.49362">
        <ele>71</ele>
        <time>2020-05-21T07:25:40Z</time>
      </trkpt>
      <trkpt lat="50.6903" lon="4.4953">
        <ele>73</ele>
        <time>2020-05-21T07:27:24Z</time>
      </trkpt>
      <trkpt lat="50.69056" lon="4.49645">
        <ele>82</ele>
        <time>2020-05-21T07:28:26Z</time>
      </trkpt>
      <trkpt lat="50.69073" lon="4.49683">
        <ele>82</ele>
        <time>2020-05-21T07:28:50Z</time>
      </trkpt>
      <trkpt lat="50.69146" lon="4.49768">
        <ele>87</ele>
        <time>2020-05-21T07:30:02Z</time>
      </trkpt>
      <trkpt lat="50.69059" lon="4.49953">
        <ele>104</ele>
        <time>2020-05-21T07:31:59Z</time>
      </trkpt>
      <trkpt lat="50.69057" lon="4.49997">
        <ele>107</ele>
        <time>2020-05-21T07:32:21Z</time>
      </trkpt>
      <trkpt lat="50.69065" lon="4.50034">
        <ele>108</ele>
        <time>2020-05-21T07:32:41Z</time>
      </trkpt>
      <trkpt lat="50.69052" lon="4.50058">
        <ele>108</ele>
        <time>2020-05-21T07:32:57Z</time>
      </trkpt>
      <trkpt lat="50.69104" lon="4.50163">
        <ele>108</ele>
        <time>2020-05-21T07:34:05Z</time>
      </trkpt>
      <trkpt lat="50.69082" lon="4.50187">
        <ele>108</ele>
        <time>2020-05-21T07:34:26Z</time>
      </trkpt>
      <trkpt lat="50.69072" lon="4.50172">
        <ele>108</ele>
        <time>2020-05-21T07:34:37Z</time>
      </trkpt>
      <trkpt lat="50.6903" lon="4.50239">
        <ele>108</ele>
        <time>2020-05-21T07:35:25Z</time>
      </trkpt>
      <trkpt lat="50.6895" lon="4.50264">
        <ele>108</ele>
        <time>2020-05-21T07:36:30Z</time>
      </trkpt>
      <trkpt lat="50.68914" lon="4.5029">
        <ele>108</ele>
        <time>2020-05-21T07:37:02Z</time>
      </trkpt>
      <trkpt lat="50.6878" lon="4.50533">
        <ele>108</ele>
        <time>2020-05-21T07:39:46Z</time>
      </trkpt>
      <trkpt lat="50.68765" lon="4.50584">
        <ele>110</ele>
        <time>2020-05-21T07:40:14Z</time>
      </trkpt>
      <trkpt lat="50.68535" lon="4.50668">
        <ele>116</ele>
        <time>2020-05-21T07:43:23Z</time>
      </trkpt>
      <trkpt lat="50.68474" lon="4.50704">
        <ele>117</ele>
        <time>2020-05-21T07:44:15Z</time>
      </trkpt>
      <trkpt lat="50.68395" lon="4.50816">
        <ele>118</ele>
        <time>2020-05-21T07:45:40Z</time>
      </trkpt>
      <trkpt lat="50.68169" lon="4.5081">
        <ele>115</ele>
        <time>2020-05-21T07:48:41Z</time>
      </trkpt>
      <trkpt lat="50.68082" lon="4.50825">
        <ele>122</ele>
        <time>2020-05-21T07:49:51Z</time>
      </trkpt>
      <trkpt lat="50.68043" lon="4.50689">
        <ele>122</ele>
        <time>2020-05-21T07:51:07Z</time>
      </trkpt>
      <trkpt lat="50.67986" lon="4.50642">
        <ele>119</ele>
        <time>2020-05-21T07:51:59Z</time>
      </trkpt>
      <trkpt lat="50.67966" lon="4.50593">
        <ele>118</ele>
        <time>2020-05-21T07:52:28Z</time>
      </trkpt>
      <trkpt lat="50.67907" lon="4.50314">
        <ele>121</ele>
        <time>2020-05-21T07:54:57Z</time>
      </trkpt>
      <trkpt lat="50.67895" lon="4.50242">
        <ele>120</ele>
        <time>2020-05-21T07:55:35Z</time>
      </trkpt>
      <trkpt lat="50.67855" lon="4.50174">
        <ele>121</ele>
        <time>2020-05-21T07:56:22Z</time>
      </trkpt>
      <trkpt lat="50.67865" lon="4.50069">
        <ele>120</ele>
        <time>2020-05-21T07:57:16Z</time>
      </trkpt>
      <trkpt lat="50.67874" lon="4.49941">
        <ele>119</ele>
        <time>2020-05-21T07:58:21Z</time>
      </trkpt>
      <trkpt lat="50.6791" lon="4.49818">
        <ele>118</ele>
        <time>2020-05-21T07:59:30Z</time>
      </trkpt>
      <trkpt lat="50.67952" lon="4.4972">
        <ele>117</ele>
        <time>2020-05-21T08:00:30Z</time>
      </trkpt>
      <trkpt lat="50.6799" lon="4.49651">
        <ele>117</ele>
        <time>2020-05-21T08:01:17Z</time>
      </trkpt>
      <trkpt lat="50.68025" lon="4.4952">
        <ele>119</ele>
        <time>2020-05-21T08:02:29Z</time>
      </trkpt>
      <trkpt lat="50.68042" lon="4.49447">
        <ele>117</ele>
        <time>2020-05-21T08:03:08Z</time>
      </trkpt>
      <trkpt lat="50.68072" lon="4.49346">
        <ele>114</ele>
        <time>2020-05-21T08:04:05Z</time>
      </trkpt>
      <trkpt lat="50.68095" lon="4.49318">
        <ele>113</ele>
        <time>2020-05-21T08:04:28Z</time>
      </trkpt>
      <trkpt lat="50.68095" lon="4.49331">
        <ele>114</ele>
        <time>2020-05-21T08:04:35Z</time>
      </trkpt>
      <trkpt lat="50.68095" lon="4.49331">
        <ele>114</ele>
        <time>2020-05-21T08:04:35Z</time>
      </trkpt>
      <trkpt lat="50.68083" lon="4.49317">
        <ele>113</ele>
        <time>2020-05-21T08:04:47Z</time>
      </trkpt>
      <trkpt lat="50.68083" lon="4.49317">
        <ele>113</ele>
        <time>2020-05-21T08:04:47Z</time>
      </trkpt>
    </trkseg>
  </trk>
</gpx>